Terminal Aerodrome Forecast
Issued by NWS Mt. Holly, NJ

Home | Current Version | Previous Version | Text Only | Print | Product List | Glossary On
Versions: 1 2 3 4 5 6 7 8 9 10 11 12 13 14 15 16 17 18 19 20 21 22
769
FTUS41 KPHI 141121
TAFTTN
TAF
KTTN 141121Z 1412/1512 33008G16KT P6SM FEW050
     FM141400 33009KT P6SM SKC
     FM142100 33006KT P6SM SCT200
     FM150400 00000KT P6SM BKN200
     FM151100 13003KT P6SM BKN070 OVC100=

USA.gov is the U.S. government's official web portal to all federal, state and local government web resources and services.